createdAt,value
2023-04-23T09:06:47.982Z,16.79
2023-04-23T09:09:18.292Z,16.87
2023-04-23T09:11:47.012Z,16.93
2023-04-23T09:14:17.094Z,16.99
2023-04-23T09:16:45.558Z,17.03
2023-04-23T09:19:15.336Z,17.09
2023-04-23T09:21:46.434Z,17.18
2023-04-23T09:24:18.157Z,17.23
2023-04-23T09:26:49.550Z,17.23
2023-04-23T09:29:20.116Z,17.20
2023-04-23T09:31:50.727Z,17.24
2023-04-23T09:34:20.926Z,17.32
2023-04-23T09:36:51.969Z,17.41
2023-04-23T09:39:24.715Z,17.53
2023-04-23T09:41:54.519Z,17.63
2023-04-23T09:44:24.742Z,17.67
2023-04-23T09:46:53.297Z,17.69
2023-04-23T09:49:22.163Z,17.74
2023-04-23T09:51:50.547Z,17.79
2023-04-23T09:54:23.770Z,17.83
2023-04-23T09:56:57.224Z,17.91
2023-04-23T09:59:39.945Z,18.00
2023-04-23T10:02:15.390Z,17.93
2023-04-23T10:04:44.352Z,17.86
2023-04-23T10:07:20.216Z,17.76
2023-04-23T10:09:49.248Z,17.76
2023-04-23T10:12:43.917Z,17.84
2023-04-23T10:15:11.173Z,17.87
2023-04-23T10:17:41.301Z,17.97
2023-04-23T10:20:12.967Z,18.01
2023-04-23T10:22:44.882Z,18.13
2023-04-23T10:25:13.793Z,18.30
2023-04-23T10:27:52.697Z,18.48
2023-04-23T10:30:23.551Z,18.63
2023-04-23T10:32:54.445Z,18.79
2023-04-23T10:35:23.598Z,18.90
2023-04-23T10:37:53.281Z,19.04
2023-04-23T10:40:30.283Z,19.18
2023-04-23T10:43:00.870Z,19.35
2023-04-23T10:45:32.637Z,19.49
2023-04-23T10:48:01.277Z,19.51
2023-04-23T10:50:35.308Z,19.58
2023-04-23T10:53:04.574Z,19.52
2023-04-23T10:55:33.448Z,19.60
2023-04-23T10:58:08.700Z,19.68
2023-04-23T11:00:46.751Z,19.67
2023-04-23T11:03:30.634Z,19.57
2023-04-23T11:06:03.828Z,19.39
2023-04-23T11:08:35.759Z,19.34
2023-04-23T11:11:09.013Z,19.24
2023-04-23T11:13:53.400Z,19.18
2023-04-23T11:16:24.015Z,19.25
2023-04-23T11:18:56.822Z,19.32
2023-04-23T11:22:01.444Z,19.31
2023-04-23T11:24:43.014Z,19.32
2023-04-23T11:27:17.417Z,19.32
2023-04-23T11:29:47.807Z,19.33
2023-04-23T11:32:18.114Z,19.38
2023-04-23T11:34:50.092Z,19.50
2023-04-23T11:37:19.088Z,19.55
2023-04-23T11:39:49.393Z,19.63
2023-04-23T11:42:20.582Z,19.77
2023-04-23T11:44:49.248Z,19.80
2023-04-23T11:47:18.955Z,19.88
2023-04-23T11:49:48.667Z,19.97
2023-04-23T11:52:17.461Z,20.10
2023-04-23T11:54:46.045Z,20.18
2023-04-23T11:57:14.929Z,20.27
2023-04-23T11:59:43.911Z,20.38
2023-04-23T12:02:12.776Z,20.48
2023-04-23T12:04:41.534Z,20.45
2023-04-23T12:07:19.698Z,20.43
2023-04-23T12:10:00.679Z,20.57
2023-04-23T12:12:35.941Z,20.58
2023-04-23T12:15:07.658Z,20.68
2023-04-23T12:17:36.495Z,20.80
2023-04-23T12:20:09.900Z,20.95
2023-04-23T12:22:39.778Z,21.07
2023-04-23T12:25:09.759Z,21.20
2023-04-23T12:27:44.420Z,21.29
2023-04-23T12:30:13.393Z,21.38
2023-04-23T12:32:42.044Z,21.43
2023-04-23T12:35:11.706Z,21.28
2023-04-23T12:37:40.180Z,21.25
2023-04-23T12:40:09.313Z,21.22
2023-04-23T12:42:37.878Z,21.15
2023-04-23T12:45:08.342Z,21.10
2023-04-23T12:47:36.717Z,21.15
2023-04-23T12:50:05.916Z,21.18
2023-04-23T12:52:34.244Z,21.12
2023-04-23T12:55:05.296Z,21.03
2023-04-23T12:57:34.278Z,21.08
2023-04-23T13:00:02.613Z,20.95
2023-04-23T13:02:31.908Z,20.93
2023-04-23T13:05:01.406Z,20.82
2023-04-23T13:07:30.252Z,20.58
2023-04-23T13:09:59.885Z,20.67
2023-04-23T13:12:29.882Z,20.72
2023-04-23T13:14:58.787Z,20.63
2023-04-23T13:17:27.480Z,20.67
2023-04-23T13:19:57.479Z,20.74
2023-04-23T13:22:29.429Z,20.73
2023-04-23T13:24:59.043Z,20.69
2023-04-23T13:27:29.432Z,20.79
2023-04-23T13:29:58.982Z,20.89
2023-04-23T13:32:32.423Z,20.88
2023-04-23T13:35:04.282Z,20.73
2023-04-23T13:37:33.825Z,20.73
2023-04-23T13:40:04.922Z,20.83
2023-04-23T13:42:35.203Z,20.95
2023-04-23T13:45:06.559Z,21.00
2023-04-23T13:47:36.687Z,21.15
2023-04-23T13:50:07.102Z,21.44
2023-04-23T13:52:35.471Z,21.76
2023-04-23T13:55:04.877Z,22.02
2023-04-23T13:57:34.179Z,22.28
2023-04-23T14:00:05.438Z,22.37
2023-04-23T14:02:33.872Z,22.36
2023-04-23T14:05:04.441Z,22.41
2023-04-23T14:07:33.340Z,22.57
2023-04-23T14:10:01.983Z,22.70
2023-04-23T14:12:31.024Z,22.86
2023-04-23T14:14:59.987Z,22.82
2023-04-23T14:17:28.534Z,22.61
2023-04-23T14:19:56.987Z,22.37
2023-04-23T14:22:25.650Z,22.30
2023-04-23T14:25:02.787Z,22.48
2023-04-23T14:27:42.022Z,22.54
2023-04-23T14:30:19.952Z,22.37
2023-04-23T14:32:49.979Z,22.24
2023-04-23T14:35:24.548Z,22.23
2023-04-23T14:37:58.094Z,22.19
2023-04-23T14:40:26.884Z,22.02
2023-04-23T14:42:59.221Z,21.64
2023-04-23T14:45:33.771Z,21.36
2023-04-23T14:48:02.472Z,21.03
2023-04-23T14:50:30.983Z,20.71
2023-04-23T14:52:59.728Z,20.47
2023-04-23T14:55:28.108Z,20.24
2023-04-23T14:57:56.801Z,20.04
2023-04-23T15:00:25.590Z,19.81
2023-04-23T15:02:54.465Z,19.72
2023-04-23T15:05:25.625Z,19.65
2023-04-23T15:07:54.713Z,19.55
2023-04-23T15:10:24.538Z,19.45
2023-04-23T15:13:03.665Z,19.34
2023-04-23T15:16:09.104Z,19.26
2023-04-23T15:18:37.791Z,19.16
2023-04-23T15:21:06.368Z,19.12
2023-04-23T15:23:34.854Z,19.07
2023-04-23T15:26:03.784Z,19.03
2023-04-23T15:28:32.332Z,18.99
2023-04-23T15:31:01.229Z,18.98
2023-04-23T15:33:30.539Z,18.95
2023-04-23T15:36:00.021Z,18.87
2023-04-23T15:38:30.914Z,18.80
2023-04-23T15:41:02.135Z,18.74
2023-04-23T15:43:31.814Z,18.68
2023-04-23T15:46:01.763Z,18.62
2023-04-23T15:48:30.213Z,18.54
2023-04-23T15:50:58.905Z,18.45
2023-04-23T15:53:28.426Z,18.37
2023-04-23T15:55:57.917Z,18.32
2023-04-23T15:58:26.389Z,18.27
2023-04-23T16:00:56.671Z,18.16
2023-04-23T16:03:26.445Z,18.10
2023-04-23T16:05:56.573Z,18.06
2023-04-23T16:08:25.224Z,18.02
2023-04-23T16:10:55.240Z,17.96
2023-04-23T16:13:24.653Z,17.90
2023-04-23T16:15:56.518Z,17.83
2023-04-23T16:18:24.987Z,17.76
2023-04-23T16:20:53.879Z,17.71
2023-04-23T16:23:22.563Z,17.66
2023-04-23T16:25:53.412Z,17.58
2023-04-23T16:28:22.290Z,17.51
2023-04-23T16:30:51.924Z,17.41
2023-04-23T16:33:20.383Z,17.31
2023-04-23T16:35:49.491Z,17.19
2023-04-23T16:38:18.055Z,17.08
2023-04-23T16:40:47.678Z,16.94
2023-04-23T16:43:17.684Z,16.83
2023-04-23T16:45:46.402Z,16.72
2023-04-23T16:48:20.180Z,16.60
2023-04-23T16:50:48.658Z,16.46
2023-04-23T16:53:18.541Z,16.34
2023-04-23T16:55:48.813Z,16.20
2023-04-23T16:58:19.012Z,16.07
2023-04-23T17:00:47.748Z,15.95
2023-04-23T17:03:16.977Z,15.85
2023-04-23T17:05:55.309Z,15.76
2023-04-23T17:08:25.021Z,15.65
2023-04-23T17:10:54.860Z,15.55
2023-04-23T17:13:27.001Z,15.45
2023-04-23T17:15:55.712Z,15.34
2023-04-23T17:18:24.781Z,15.23
2023-04-23T17:20:53.668Z,15.12
2023-04-23T17:23:22.052Z,15.00
2023-04-23T17:25:50.637Z,14.91
2023-04-23T17:28:20.551Z,14.81
2023-04-23T17:30:52.724Z,14.72
2023-04-23T17:33:21.504Z,14.63
2023-04-23T17:35:55.622Z,14.54
2023-04-23T17:38:25.039Z,14.45
2023-04-23T17:40:53.860Z,14.36
2023-04-23T17:43:22.812Z,14.29
2023-04-23T17:45:51.303Z,14.21
2023-04-23T17:48:22.647Z,14.14
2023-04-23T17:50:54.788Z,14.07
2023-04-23T17:53:23.581Z,14.00
2023-04-23T17:55:52.472Z,13.92
2023-04-23T17:58:21.778Z,13.85
2023-04-23T18:00:50.723Z,13.79
2023-04-23T18:03:20.895Z,13.74
2023-04-23T18:05:49.779Z,13.70
2023-04-23T18:08:19.792Z,13.65
2023-04-23T18:10:48.574Z,13.58
2023-04-23T18:13:17.366Z,13.54
2023-04-23T18:15:50.032Z,13.49
2023-04-23T18:18:19.259Z,13.43
2023-04-23T18:20:47.832Z,13.35
2023-04-23T18:23:16.549Z,13.26
2023-04-23T18:25:44.996Z,13.18
2023-04-23T18:28:13.792Z,13.10
2023-04-23T18:30:42.378Z,13.03
2023-04-23T18:34:04.724Z,12.95
2023-04-23T18:36:36.789Z,12.86
2023-04-23T18:39:07.643Z,12.78
2023-04-23T18:41:36.617Z,12.74
2023-04-23T18:44:05.287Z,12.69
2023-04-23T18:46:34.003Z,12.65
2023-04-23T18:49:25.201Z,12.61
2023-04-23T18:51:53.883Z,12.57
2023-04-23T18:54:22.560Z,12.56
2023-04-23T18:56:53.005Z,12.53
2023-04-23T18:59:21.519Z,12.50
2023-04-23T19:01:50.853Z,12.48
2023-04-23T19:04:20.237Z,12.48
2023-04-23T19:06:49.063Z,12.46
2023-04-23T19:09:18.367Z,12.43
2023-04-23T19:11:46.952Z,12.37
2023-04-23T19:14:16.817Z,12.33
2023-04-23T19:16:46.778Z,12.28
2023-04-23T19:19:15.565Z,12.23
2023-04-23T19:21:44.351Z,12.18
2023-04-23T19:24:13.351Z,12.13
2023-04-23T19:26:41.842Z,12.09
2023-04-23T19:29:10.405Z,12.02
2023-04-23T19:31:39.121Z,11.94
2023-04-23T19:34:07.880Z,11.86
2023-04-23T19:36:37.076Z,11.78
2023-04-23T19:39:05.573Z,11.71
2023-04-23T19:41:34.246Z,11.66
2023-04-23T19:44:02.741Z,11.64
2023-04-23T19:46:31.132Z,11.63
2023-04-23T19:49:00.011Z,11.64
2023-04-23T19:51:33.106Z,11.63
2023-04-23T19:54:03.101Z,11.62
2023-04-23T19:56:31.586Z,11.58
2023-04-23T19:58:59.963Z,11.51
2023-04-23T20:01:30.266Z,11.42
2023-04-23T20:03:58.823Z,11.35
2023-04-23T20:06:29.291Z,11.28
2023-04-23T20:09:07.133Z,11.24
2023-04-23T20:11:36.385Z,11.18
2023-04-23T20:14:04.986Z,11.13
2023-04-23T20:16:34.734Z,11.12
2023-04-23T20:19:05.075Z,11.09
2023-04-23T20:21:33.493Z,11.05
2023-04-23T20:24:02.285Z,11.04
2023-04-23T20:26:30.698Z,11.00
2023-04-23T20:28:59.684Z,10.94
2023-04-23T20:31:28.157Z,10.88
2023-04-23T20:33:57.842Z,10.85
2023-04-23T20:36:31.664Z,10.83
2023-04-23T20:39:03.426Z,10.83
2023-04-23T20:41:34.753Z,10.84
2023-04-23T20:44:05.401Z,10.85
2023-04-23T20:46:37.069Z,10.85
2023-04-23T20:49:05.756Z,10.84
2023-04-23T20:51:34.544Z,10.82
2023-04-23T20:54:03.211Z,10.81
2023-04-23T20:56:32.056Z,10.78
2023-04-23T20:59:00.806Z,10.74
2023-04-23T21:01:29.491Z,10.70
2023-04-23T21:04:00.657Z,10.66
2023-04-23T21:06:31.463Z,10.61
2023-04-23T21:09:00.251Z,10.57
2023-04-23T21:11:29.850Z,10.54
2023-04-23T21:14:00.786Z,10.50
2023-04-23T21:16:29.926Z,10.46
2023-04-23T21:18:58.455Z,10.42
2023-04-23T21:21:30.039Z,10.38
2023-04-23T21:24:01.026Z,10.36
2023-04-23T21:26:31.243Z,10.34
2023-04-23T21:28:59.877Z,10.31
2023-04-23T21:31:46.525Z,10.28
2023-04-23T21:34:15.758Z,10.26
2023-04-23T21:36:47.309Z,10.22
2023-04-23T21:39:16.506Z,10.18
2023-04-23T21:41:47.043Z,10.14
2023-04-23T21:44:17.269Z,10.08
2023-04-23T21:46:46.961Z,10.02
2023-04-23T21:49:17.487Z,9.98
2023-04-23T21:51:46.601Z,9.92
2023-04-23T21:54:15.174Z,9.88
2023-04-23T21:56:43.963Z,9.85
2023-04-23T21:59:12.541Z,9.83
2023-04-23T22:01:41.387Z,9.81
2023-04-23T22:04:10.551Z,9.78
2023-04-23T22:06:39.425Z,9.75
2023-04-23T22:09:08.719Z,9.70
2023-04-23T22:11:37.108Z,9.66
2023-04-23T22:14:06.612Z,9.62
2023-04-23T22:16:35.758Z,9.59
2023-04-23T22:19:04.843Z,9.55
2023-04-23T22:21:36.151Z,9.50
2023-04-23T22:24:06.306Z,9.47
2023-04-23T22:26:36.318Z,9.43
2023-04-23T22:29:04.970Z,9.38
2023-04-23T22:31:33.565Z,9.33
2023-04-23T22:34:02.158Z,9.28
2023-04-23T22:36:32.392Z,9.23
2023-04-23T22:39:02.772Z,9.19
2023-04-23T22:41:33.166Z,9.15
2023-04-23T22:44:02.509Z,9.11
2023-04-23T22:46:32.031Z,9.04
2023-04-23T22:49:01.531Z,9.00
2023-04-23T22:51:33.689Z,8.96
2023-04-23T22:54:02.176Z,8.96
2023-04-23T22:56:30.852Z,8.96
2023-04-23T22:58:59.670Z,8.97
2023-04-23T23:01:28.249Z,8.96
2023-04-23T23:03:57.126Z,8.94
2023-04-23T23:06:26.828Z,8.90
2023-04-23T23:08:55.932Z,8.86
2023-04-23T23:11:25.746Z,8.83
2023-04-23T23:13:56.673Z,8.80
2023-04-23T23:16:25.794Z,8.77
2023-04-23T23:18:54.349Z,8.75
2023-04-23T23:21:23.242Z,8.72
2023-04-23T23:23:52.241Z,8.69
2023-04-23T23:26:21.560Z,8.66
2023-04-23T23:28:49.933Z,8.63
2023-04-23T23:31:18.734Z,8.59
2023-04-23T23:33:47.301Z,8.56
2023-04-23T23:39:53.427Z,8.56
2023-04-23T23:42:22.075Z,8.53
2023-04-23T23:44:50.859Z,8.51
2023-04-23T23:47:19.636Z,8.49
2023-04-23T23:49:48.223Z,8.47
2023-04-23T23:52:16.805Z,8.45
2023-04-23T23:54:45.380Z,8.45
2023-04-23T23:57:13.981Z,8.44
2023-04-23T23:59:42.988Z,8.43
